Terminal Aerodrome Forecast
Issued by NWS Charleston, WV

Home | Current Version | Previous Version | Text Only | Print | Product List | Glossary On
Versions: 1 2 3 4 5 6 7 8 9 10 11 12 13 14 15 16 17 18 19 20 21
591
FTUS41 KRLX 011732
TAFBKW
TAF
KBKW 011732Z 0118/0218 26006KT P6SM FEW018
     FM012200 25007KT 5SM -SHRA VCTS BKN024CB
     FM020100 VRB03KT 2SM SHRA VCTS BKN030CB
     FM020300 21004KT 5SM -SHRA VCTS BKN030CB
     FM020500 20005KT 4SM -SHRA VCTS BKN020CB
     FM021200 26007KT 4SM -SHRA BKN010=

USA.gov is the U.S. government's official web portal to all federal, state and local government web resources and services.